createdAt,value
2022-09-13T00:01:04.724Z,16.40
2022-09-13T00:03:32.145Z,16.40
2022-09-13T00:05:59.673Z,16.50
2022-09-13T00:08:26.421Z,16.70
2022-09-13T00:10:53.090Z,16.80
2022-09-13T00:13:19.764Z,16.90
2022-09-13T00:15:49.102Z,17.00
2022-09-13T00:18:17.639Z,17.10
2022-09-13T00:20:44.667Z,17.10
2022-09-13T00:23:12.360Z,17.10
2022-09-13T00:25:39.451Z,17.00
2022-09-13T00:28:06.428Z,16.90
2022-09-13T00:30:33.488Z,16.90
2022-09-13T00:33:04.402Z,16.90
2022-09-13T00:35:31.787Z,17.00
2022-09-13T00:38:00.286Z,16.80
2022-09-13T00:40:27.040Z,16.70
2022-09-13T00:42:53.762Z,16.60
2022-09-13T00:45:20.639Z,16.60
2022-09-13T00:48:05.664Z,16.50
2022-09-13T00:50:43.069Z,16.40
2022-09-13T00:53:30.181Z,16.40
2022-09-13T00:56:04.715Z,16.40
2022-09-13T00:58:38.486Z,16.30
2022-09-13T01:01:07.873Z,16.30
2022-09-13T01:03:36.774Z,16.30
2022-09-13T01:06:14.544Z,16.30
2022-09-13T01:08:46.398Z,16.20
2022-09-13T01:11:20.763Z,16.20
2022-09-13T01:13:48.295Z,16.20
2022-09-13T01:16:15.282Z,16.10
2022-09-13T01:18:41.953Z,16.10
2022-09-13T01:21:44.614Z,16.10
2022-09-13T01:24:38.079Z,16.10
2022-09-13T01:27:19.780Z,16.00
2022-09-13T01:30:10.559Z,16.00
2022-09-13T01:33:15.011Z,16.00
2022-09-13T01:36:01.095Z,16.00
2022-09-13T01:38:54.303Z,15.80
2022-09-13T01:41:44.618Z,15.60
2022-09-13T01:44:29.813Z,15.50
2022-09-13T01:47:26.587Z,15.60
2022-09-13T01:50:05.063Z,15.50
2022-09-13T01:52:41.071Z,15.60
2022-09-13T01:55:27.626Z,15.70
2022-09-13T01:58:02.829Z,15.70
2022-09-13T02:00:36.194Z,15.80
2022-09-13T02:03:11.677Z,15.80
2022-09-13T02:05:44.759Z,15.70
2022-09-13T02:08:30.310Z,15.70
2022-09-13T02:11:08.310Z,15.70
2022-09-13T02:13:43.181Z,15.80
2022-09-13T02:16:16.604Z,16.00
2022-09-13T02:18:51.720Z,16.00
2022-09-13T02:21:24.055Z,16.00
2022-09-13T02:24:01.645Z,15.90
2022-09-13T02:26:30.039Z,15.90
2022-09-13T02:28:59.336Z,15.80
2022-09-13T02:31:40.052Z,15.50
2022-09-13T02:34:12.686Z,15.40
2022-09-13T02:36:41.987Z,15.50
2022-09-13T02:39:17.271Z,15.50
2022-09-13T02:41:49.867Z,15.40
2022-09-13T02:44:30.093Z,15.40
2022-09-13T02:47:50.740Z,15.50
2022-09-13T02:50:55.898Z,15.60
2022-09-13T02:53:36.629Z,15.70
2022-09-13T02:56:26.501Z,15.70
2022-09-13T02:59:13.301Z,15.80
2022-09-13T03:01:45.197Z,15.80
2022-09-13T03:04:12.212Z,15.80
2022-09-13T03:06:40.881Z,15.60
2022-09-13T03:09:08.201Z,15.50
2022-09-13T03:11:53.498Z,15.50
2022-09-13T03:14:48.253Z,15.50
2022-09-13T03:17:27.154Z,15.50
2022-09-13T03:20:19.192Z,15.60
2022-09-13T03:23:04.753Z,15.70
2022-09-13T03:25:53.023Z,15.70
2022-09-13T03:28:34.867Z,15.60
2022-09-13T03:31:20.817Z,15.60
2022-09-13T03:34:13.541Z,15.50
2022-09-13T03:36:54.870Z,15.50
2022-09-13T03:40:02.831Z,15.50
2022-09-13T03:42:42.823Z,15.60
2022-09-13T03:45:11.603Z,15.50
2022-09-13T03:47:42.444Z,15.50
2022-09-13T03:50:09.874Z,15.60
2022-09-13T03:52:37.332Z,15.60
2022-09-13T03:55:04.236Z,15.50
2022-09-13T03:57:31.037Z,15.50
2022-09-13T03:59:58.020Z,15.40
2022-09-13T04:02:26.501Z,15.40
2022-09-13T04:04:53.407Z,15.30
2022-09-13T04:07:22.841Z,15.30
2022-09-13T04:09:50.142Z,15.40
2022-09-13T04:12:17.888Z,15.30
2022-09-13T04:14:44.602Z,15.20
2022-09-13T04:17:12.188Z,15.20
2022-09-13T04:19:39.765Z,15.10
2022-09-13T04:22:06.562Z,15.10
2022-09-13T04:24:33.363Z,15.10
2022-09-13T04:27:01.858Z,15.10
2022-09-13T04:29:29.019Z,15.10
2022-09-13T04:31:56.009Z,14.90
2022-09-13T04:34:23.508Z,14.90
2022-09-13T04:36:52.284Z,14.90
2022-09-13T04:39:23.847Z,14.80
2022-09-13T04:41:51.974Z,15.00
2022-09-13T04:44:18.995Z,15.10
2022-09-13T04:46:49.018Z,15.20
2022-09-13T04:49:17.533Z,15.20
2022-09-13T04:51:44.498Z,15.20
2022-09-13T04:54:15.342Z,15.30
2022-09-13T04:56:43.581Z,15.30
2022-09-13T04:59:11.616Z,15.40
2022-09-13T05:01:38.872Z,15.50
2022-09-13T05:04:07.042Z,15.50
2022-09-13T05:06:34.625Z,15.40
2022-09-13T05:09:01.664Z,15.20
2022-09-13T05:11:29.010Z,15.20
2022-09-13T05:13:58.319Z,15.10
2022-09-13T05:16:28.041Z,15.10
2022-09-13T05:18:55.450Z,15.10
2022-09-13T05:21:22.460Z,15.00
2022-09-13T05:23:50.371Z,15.20
2022-09-13T05:26:17.945Z,15.30
2022-09-13T05:28:45.032Z,15.30
2022-09-13T05:31:18.474Z,15.20
2022-09-13T05:33:46.669Z,15.10
2022-09-13T05:36:13.462Z,15.10
2022-09-13T05:38:40.169Z,15.10
2022-09-13T05:41:06.977Z,15.00
2022-09-13T05:43:35.850Z,15.00
2022-09-13T05:46:04.878Z,15.10
2022-09-13T05:48:32.989Z,15.20
2022-09-13T05:51:08.588Z,15.20
2022-09-13T05:53:35.772Z,15.20
2022-09-13T05:56:02.850Z,15.30
2022-09-13T05:58:29.608Z,15.40
2022-09-13T06:00:57.189Z,15.10
2022-09-13T06:03:24.439Z,15.00
2022-09-13T06:05:55.692Z,15.20
2022-09-13T06:08:23.796Z,15.40
2022-09-13T06:11:04.981Z,15.50
2022-09-13T06:13:32.690Z,15.50
2022-09-13T06:16:01.069Z,15.60
2022-09-13T06:18:28.443Z,15.50
2022-09-13T06:21:09.922Z,15.40
2022-09-13T06:23:37.092Z,15.40
2022-09-13T06:26:10.033Z,15.40
2022-09-13T06:28:37.752Z,15.50
2022-09-13T06:31:15.314Z,15.50
2022-09-13T06:33:43.648Z,15.60
2022-09-13T06:36:18.386Z,15.70
2022-09-13T06:38:46.919Z,15.80
2022-09-13T06:41:18.843Z,15.90
2022-09-13T06:43:47.490Z,16.00
2022-09-13T06:46:17.933Z,15.90
2022-09-13T06:48:48.591Z,15.90
2022-09-13T06:51:21.634Z,16.00
2022-09-13T06:53:50.148Z,16.00
2022-09-13T06:56:19.330Z,15.90
2022-09-13T06:58:48.016Z,16.00
2022-09-13T07:01:28.103Z,16.00
2022-09-13T07:03:59.801Z,16.10
2022-09-13T07:06:28.824Z,16.20
2022-09-13T07:08:57.203Z,16.30
2022-09-13T07:11:26.200Z,16.30
2022-09-13T07:13:58.466Z,16.40
2022-09-13T07:16:28.097Z,16.50
2022-09-13T07:18:59.873Z,16.70
2022-09-13T07:21:28.146Z,16.70
2022-09-13T07:23:57.212Z,16.90
2022-09-13T07:26:25.029Z,17.10
2022-09-13T07:28:55.064Z,17.20
2022-09-13T07:31:24.997Z,17.20
2022-09-13T07:33:57.289Z,17.20
2022-09-13T07:36:25.004Z,17.30
2022-09-13T07:38:52.450Z,17.40
2022-09-13T07:41:22.363Z,17.50
2022-09-13T07:43:49.799Z,17.60
2022-09-13T07:46:22.477Z,17.60
2022-09-13T07:48:52.460Z,17.60
2022-09-13T07:51:21.139Z,17.70
2022-09-13T07:53:52.567Z,18.00
2022-09-13T07:56:26.433Z,18.10
2022-09-13T07:58:55.194Z,18.10
2022-09-13T08:01:24.957Z,18.20
2022-09-13T08:04:03.033Z,18.20
2022-09-13T08:06:31.324Z,18.30
2022-09-13T08:08:58.717Z,18.60
2022-09-13T08:11:33.263Z,18.60
2022-09-13T08:14:00.353Z,18.50
2022-09-13T08:16:28.505Z,18.50
2022-09-13T08:18:57.021Z,18.50
2022-09-13T08:21:25.364Z,18.50
2022-09-13T08:23:56.642Z,18.60
2022-09-13T08:26:23.780Z,18.70
2022-09-13T08:28:55.525Z,18.70
2022-09-13T08:31:23.226Z,18.80
2022-09-13T08:33:50.236Z,18.80
2022-09-13T08:36:17.970Z,19.00
2022-09-13T08:38:52.507Z,19.00
2022-09-13T08:41:40.320Z,19.10
2022-09-13T08:44:27.274Z,19.20
2022-09-13T08:47:18.006Z,19.50
2022-09-13T08:49:48.706Z,19.50
2022-09-13T08:52:15.348Z,19.40
2022-09-13T08:54:43.124Z,19.50
2022-09-13T08:57:18.403Z,19.60
2022-09-13T09:00:11.645Z,19.60
2022-09-13T09:02:50.752Z,20.20
2022-09-13T09:05:22.033Z,20.30
2022-09-13T09:07:57.188Z,20.40
2022-09-13T09:10:39.455Z,20.30
2022-09-13T09:13:16.588Z,20.20
2022-09-13T09:15:53.399Z,20.10
2022-09-13T09:18:39.683Z,20.50
2022-09-13T09:21:14.778Z,20.80
2022-09-13T09:23:51.410Z,21.00
2022-09-13T09:26:19.799Z,20.70
2022-09-13T09:28:58.733Z,20.60
2022-09-13T09:31:48.483Z,20.90
2022-09-13T09:34:18.028Z,20.90
2022-09-13T09:36:48.235Z,20.80
2022-09-13T09:39:16.518Z,20.80
2022-09-13T09:41:44.677Z,20.90
2022-09-13T09:44:27.499Z,21.60
2022-09-13T09:47:11.695Z,21.60
2022-09-13T09:50:09.305Z,21.90
2022-09-13T09:52:42.993Z,21.80
2022-09-13T09:55:15.749Z,21.90
2022-09-13T09:57:51.054Z,22.10
2022-09-13T10:00:18.952Z,22.00
2022-09-13T10:02:47.353Z,22.20
2022-09-13T10:05:18.309Z,22.40
2022-09-13T10:07:53.948Z,22.40
2022-09-13T10:10:27.147Z,22.60
2022-09-13T10:12:56.598Z,22.50
2022-09-13T10:15:33.497Z,22.50
2022-09-13T10:18:39.936Z,22.60
2022-09-13T10:21:07.061Z,22.60
2022-09-13T10:23:37.377Z,22.80
2022-09-13T10:26:11.021Z,23.10
2022-09-13T10:29:10.259Z,23.30
2022-09-13T10:31:41.200Z,23.40
2022-09-13T10:34:16.540Z,23.50
2022-09-13T10:36:54.402Z,23.50
2022-09-13T10:39:23.843Z,23.60
2022-09-13T10:42:03.669Z,23.70
2022-09-13T10:44:52.488Z,23.80
2022-09-13T10:47:23.394Z,24.20
2022-09-13T10:49:53.011Z,24.50
2022-09-13T10:52:35.199Z,24.70
2022-09-13T10:55:20.264Z,24.80
2022-09-13T10:57:49.490Z,24.60
2022-09-13T11:00:22.864Z,24.80
2022-09-13T11:03:32.106Z,24.90
2022-09-13T11:06:17.451Z,24.70
2022-09-13T11:08:44.041Z,25.00
2022-09-13T11:11:46.049Z,24.80
2022-09-13T11:15:01.703Z,25.10
2022-09-13T11:18:13.495Z,25.10
2022-09-13T11:20:58.223Z,25.30
2022-09-13T11:23:47.934Z,25.20
2022-09-13T11:26:42.270Z,25.30
2022-09-13T11:29:19.896Z,25.60
2022-09-13T11:32:04.842Z,25.50
2022-09-13T11:34:39.785Z,25.40
2022-09-13T11:37:44.192Z,25.40
2022-09-13T11:40:28.658Z,25.50
2022-09-13T11:43:13.993Z,25.70
2022-09-13T11:46:00.623Z,25.80
2022-09-13T11:48:41.977Z,25.90
2022-09-13T11:51:30.547Z,25.90
2022-09-13T11:54:09.096Z,26.00
2022-09-13T11:56:42.564Z,26.00
2022-09-13T11:59:19.720Z,26.20
2022-09-13T12:01:52.682Z,26.10
2022-09-13T12:04:25.742Z,26.10
2022-09-13T12:06:59.811Z,26.20
2022-09-13T12:09:31.014Z,26.20
2022-09-13T12:12:05.495Z,26.30
2022-09-13T12:14:44.266Z,26.20
2022-09-13T12:17:25.993Z,26.30
2022-09-13T12:19:55.742Z,26.50
2022-09-13T12:22:31.034Z,26.60
2022-09-13T12:25:03.496Z,26.50
2022-09-13T12:27:51.775Z,26.50
2022-09-13T12:30:21.412Z,26.60
2022-09-13T12:32:49.355Z,26.70
2022-09-13T12:35:28.646Z,26.60
2022-09-13T12:38:20.053Z,26.90
2022-09-13T12:41:09.807Z,26.90
2022-09-13T12:44:02.186Z,26.90
2022-09-13T12:46:57.770Z,26.80
2022-09-13T12:49:51.058Z,26.70
2022-09-13T12:52:49.833Z,26.60
2022-09-13T12:55:46.967Z,26.60
2022-09-13T12:58:43.131Z,26.70
2022-09-13T13:01:20.234Z,26.60
2022-09-13T13:04:13.101Z,26.60
2022-09-13T13:07:04.528Z,26.70
2022-09-13T13:09:42.587Z,26.80
2022-09-13T13:12:12.649Z,27.00
2022-09-13T13:14:39.272Z,26.80
2022-09-13T13:17:39.853Z,27.20
2022-09-13T13:20:44.242Z,27.20
2022-09-13T13:23:26.941Z,27.00
2022-09-13T13:26:18.439Z,27.10
2022-09-13T13:28:45.222Z,27.10
2022-09-13T13:31:24.471Z,27.10
2022-09-13T13:33:58.427Z,27.20
2022-09-13T13:36:29.968Z,27.20
2022-09-13T13:38:57.081Z,27.10
2022-09-13T13:41:39.551Z,27.10
2022-09-13T13:44:21.793Z,26.90
2022-09-13T13:46:50.663Z,26.70
2022-09-13T13:49:32.641Z,26.60
2022-09-13T13:52:19.040Z,26.70
2022-09-13T13:54:45.667Z,26.90
2022-09-13T13:57:32.496Z,26.90
2022-09-13T14:00:23.480Z,27.00
2022-09-13T14:02:50.105Z,27.10
2022-09-13T14:05:44.280Z,27.30
2022-09-13T14:08:33.027Z,27.40
2022-09-13T14:11:10.313Z,27.50
2022-09-13T14:14:18.606Z,27.50
2022-09-13T14:17:26.678Z,27.80
2022-09-13T14:19:59.011Z,27.70
2022-09-13T14:22:26.793Z,27.50
2022-09-13T14:24:55.831Z,27.70
2022-09-13T14:27:27.300Z,27.70
2022-09-13T14:30:04.447Z,27.70
2022-09-13T14:32:41.871Z,27.70
2022-09-13T14:35:32.905Z,27.60
2022-09-13T14:38:19.567Z,27.50
2022-09-13T14:40:54.560Z,27.40
2022-09-13T14:43:23.536Z,27.40
2022-09-13T14:45:54.909Z,27.40
2022-09-13T14:48:27.561Z,27.50
2022-09-13T14:50:59.498Z,27.50
2022-09-13T14:53:30.980Z,27.50
2022-09-13T14:56:07.526Z,27.30
2022-09-13T14:58:45.252Z,27.20
2022-09-13T15:01:16.184Z,27.20
2022-09-13T15:03:45.213Z,27.10
2022-09-13T15:06:28.257Z,27.10
2022-09-13T15:09:20.856Z,27.00
2022-09-13T15:11:53.693Z,26.90
2022-09-13T15:14:23.152Z,26.80
2022-09-13T15:16:53.683Z,26.70
2022-09-13T15:19:23.461Z,26.70
2022-09-13T15:21:50.837Z,26.70
2022-09-13T15:24:32.003Z,26.60
2022-09-13T15:27:07.637Z,26.70
2022-09-13T15:29:37.457Z,26.60
2022-09-13T15:32:06.669Z,26.40
2022-09-13T15:34:33.756Z,26.30
2022-09-13T15:37:08.297Z,26.20
2022-09-13T15:39:45.650Z,26.20
2022-09-13T15:42:12.408Z,26.20
2022-09-13T15:44:42.533Z,26.20
2022-09-13T15:47:15.183Z,26.20
2022-09-13T15:49:48.223Z,26.30
2022-09-13T15:52:15.374Z,26.40
2022-09-13T15:54:43.504Z,26.40
2022-09-13T15:57:21.099Z,26.40
2022-09-13T15:59:48.088Z,26.40
2022-09-13T16:02:28.094Z,26.40
2022-09-13T16:04:58.500Z,26.40
2022-09-13T16:07:26.507Z,26.40
2022-09-13T16:09:53.697Z,26.20
2022-09-13T16:12:24.368Z,26.20
2022-09-13T16:14:51.068Z,26.10
2022-09-13T16:17:24.004Z,26.00
2022-09-13T16:19:51.471Z,25.90
2022-09-13T16:22:18.359Z,25.80
2022-09-13T16:24:45.099Z,25.80
2022-09-13T16:27:17.566Z,25.70
2022-09-13T16:29:44.569Z,25.60
2022-09-13T16:32:11.924Z,25.60
2022-09-13T16:34:41.409Z,25.50
2022-09-13T16:37:08.217Z,25.40
2022-09-13T16:39:34.881Z,25.30
2022-09-13T16:42:01.932Z,25.20
2022-09-13T16:44:28.575Z,25.20
2022-09-13T16:46:55.349Z,25.10
2022-09-13T16:49:22.106Z,25.00
2022-09-13T16:51:49.031Z,25.00
2022-09-13T16:54:15.777Z,24.90
2022-09-13T16:56:42.623Z,24.80
2022-09-13T16:59:09.416Z,24.80
2022-09-13T17:01:36.765Z,24.70
2022-09-13T17:04:03.751Z,24.60
2022-09-13T17:06:30.453Z,24.50
2022-09-13T17:09:01.977Z,24.50
2022-09-13T17:11:32.331Z,24.50
2022-09-13T17:14:00.184Z,24.40
2022-09-13T17:16:30.191Z,24.40
2022-09-13T17:18:59.166Z,24.30
2022-09-13T17:21:26.863Z,24.20
2022-09-13T17:23:54.331Z,24.20
2022-09-13T17:26:22.078Z,24.20
2022-09-13T17:28:48.965Z,24.20
2022-09-13T17:31:16.073Z,24.10
2022-09-13T17:33:42.849Z,24.10
2022-09-13T17:36:11.716Z,24.10
2022-09-13T17:38:38.524Z,24.00
2022-09-13T17:41:09.542Z,24.00
2022-09-13T17:43:37.224Z,23.90
2022-09-13T17:46:10.665Z,23.90
2022-09-13T17:48:38.170Z,23.80
2022-09-13T17:51:07.423Z,23.80
2022-09-13T17:53:42.009Z,23.80
2022-09-13T17:56:09.270Z,23.80
2022-09-13T17:58:36.614Z,23.70
2022-09-13T18:01:09.602Z,23.70
2022-09-13T18:03:38.626Z,23.60
2022-09-13T18:06:07.716Z,23.60
2022-09-13T18:08:36.186Z,23.50
2022-09-13T18:11:14.061Z,23.60
2022-09-13T18:13:42.982Z,23.50
2022-09-13T18:16:20.903Z,23.50
2022-09-13T18:18:49.633Z,23.40
2022-09-13T18:21:20.778Z,23.30
2022-09-13T18:23:49.637Z,23.20
2022-09-13T18:26:18.609Z,23.20
2022-09-13T18:28:46.079Z,23.20
2022-09-13T18:31:17.164Z,23.20
2022-09-13T18:33:45.206Z,23.10
2022-09-13T18:36:14.896Z,23.10
2022-09-13T18:38:47.401Z,23.10
2022-09-13T18:41:22.738Z,23.10
2022-09-13T18:43:55.442Z,23.10
2022-09-13T18:46:25.617Z,23.00
2022-09-13T18:48:54.450Z,23.00
2022-09-13T18:51:23.840Z,23.00
2022-09-13T18:53:51.037Z,23.00
2022-09-13T18:56:20.606Z,22.90
2022-09-13T18:58:47.842Z,22.80
2022-09-13T19:01:20.674Z,22.80
2022-09-13T19:03:59.568Z,22.80
2022-09-13T19:06:32.283Z,22.70
2022-09-13T19:09:00.010Z,22.70
2022-09-13T19:11:48.238Z,22.70
2022-09-13T19:14:24.639Z,22.60
2022-09-13T19:16:53.343Z,22.60
2022-09-13T19:19:20.584Z,22.60
2022-09-13T19:21:47.531Z,22.60
2022-09-13T19:24:19.522Z,22.50
2022-09-13T19:26:51.541Z,22.60
2022-09-13T19:29:21.179Z,22.60
2022-09-13T19:31:49.431Z,22.60
2022-09-13T19:34:18.760Z,22.50
2022-09-13T19:36:45.879Z,22.50
2022-09-13T19:39:12.663Z,22.30
2022-09-13T19:41:40.470Z,22.30
2022-09-13T19:44:08.522Z,22.30
2022-09-13T19:46:40.206Z,22.20
2022-09-13T19:49:08.517Z,22.20
2022-09-13T19:51:37.429Z,22.10
2022-09-13T19:54:05.946Z,22.20
2022-09-13T19:56:35.167Z,22.20
2022-09-13T19:59:02.956Z,22.10
2022-09-13T20:01:32.365Z,22.00
2022-09-13T20:04:01.524Z,21.90
2022-09-13T20:06:33.508Z,21.90
2022-09-13T20:09:01.032Z,21.90
2022-09-13T20:11:31.584Z,22.00
2022-09-13T20:13:59.511Z,21.90
2022-09-13T20:16:29.472Z,22.00
2022-09-13T20:18:57.452Z,22.00
2022-09-13T20:21:26.174Z,21.90
2022-09-13T20:23:59.033Z,21.80
2022-09-13T20:26:26.782Z,21.80
2022-09-13T20:28:59.868Z,21.90
2022-09-13T20:31:28.445Z,21.80
2022-09-13T20:34:00.456Z,21.70
2022-09-13T20:36:30.302Z,21.80
2022-09-13T20:39:02.322Z,21.80
2022-09-13T20:41:33.315Z,21.90
2022-09-13T20:44:01.128Z,22.00
2022-09-13T20:46:29.432Z,21.90
2022-09-13T20:48:56.789Z,22.00
2022-09-13T20:51:25.488Z,21.90
2022-09-13T20:53:57.988Z,21.90
2022-09-13T20:56:24.870Z,21.90
2022-09-13T20:58:57.553Z,21.90
2022-09-13T21:01:26.509Z,21.90
2022-09-13T21:03:55.126Z,21.60
2022-09-13T21:06:23.979Z,21.70
2022-09-13T21:08:51.045Z,21.70
2022-09-13T21:11:19.034Z,21.60
2022-09-13T21:13:49.915Z,21.60
2022-09-13T21:16:19.370Z,21.50
2022-09-13T21:18:46.866Z,21.60
2022-09-13T21:21:34.870Z,21.60
2022-09-13T21:24:05.874Z,21.50
2022-09-13T21:26:33.241Z,21.40
2022-09-13T21:29:00.431Z,21.40
2022-09-13T21:31:33.163Z,21.40
2022-09-13T21:34:02.237Z,21.40
2022-09-13T21:36:29.751Z,21.30
2022-09-13T21:38:57.262Z,21.40
2022-09-13T21:41:25.620Z,21.40
2022-09-13T21:43:52.375Z,21.50
2022-09-13T21:46:22.138Z,21.50
2022-09-13T21:48:51.080Z,21.20
2022-09-13T21:51:18.933Z,21.30
2022-09-13T21:53:46.916Z,21.40
2022-09-13T21:56:19.696Z,21.30
2022-09-13T21:58:55.019Z,21.40
2022-09-13T22:01:23.395Z,21.30
2022-09-13T22:03:51.750Z,21.20
2022-09-13T22:06:20.066Z,21.10
2022-09-13T22:08:49.744Z,21.10
2022-09-13T22:11:19.704Z,21.20
2022-09-13T22:13:47.606Z,21.20
2022-09-13T22:16:21.879Z,21.20
2022-09-13T22:18:59.653Z,21.00
2022-09-13T22:21:29.634Z,20.90
2022-09-13T22:23:56.893Z,20.80
2022-09-13T22:26:26.845Z,20.90
2022-09-13T22:28:55.126Z,20.90
2022-09-13T22:31:24.268Z,20.90
2022-09-13T22:33:52.032Z,21.00
2022-09-13T22:36:19.468Z,21.10
2022-09-13T22:38:53.025Z,21.00
2022-09-13T22:41:27.008Z,20.90
2022-09-13T22:43:54.226Z,20.90
2022-09-13T22:46:24.387Z,21.00
2022-09-13T22:48:52.641Z,21.10
2022-09-13T22:51:19.572Z,21.00
2022-09-13T22:53:48.372Z,20.90
2022-09-13T22:56:30.787Z,20.90
2022-09-13T22:59:10.883Z,20.70
2022-09-13T23:01:38.177Z,20.60
2022-09-13T23:04:05.670Z,20.50
2022-09-13T23:06:33.559Z,20.40
2022-09-13T23:09:02.172Z,20.50
2022-09-13T23:11:37.277Z,20.60
2022-09-13T23:14:10.781Z,20.70
2022-09-13T23:16:43.606Z,20.70
2022-09-13T23:19:12.894Z,20.40
2022-09-13T23:21:40.406Z,20.40
2022-09-13T23:24:10.731Z,20.40
2022-09-13T23:26:37.431Z,20.50
2022-09-13T23:29:05.464Z,20.40
2022-09-13T23:31:34.859Z,20.30
2022-09-13T23:34:04.020Z,20.40
2022-09-13T23:36:35.331Z,20.30
2022-09-13T23:39:03.641Z,20.20
2022-09-13T23:41:30.941Z,20.30
2022-09-13T23:43:57.651Z,20.40
2022-09-13T23:46:24.379Z,20.40
2022-09-13T23:48:51.106Z,20.40
2022-09-13T23:51:23.367Z,20.40
2022-09-13T23:53:52.073Z,20.50
2022-09-13T23:56:20.087Z,20.30
2022-09-13T23:58:47.050Z,20.40
